sensor_id;sensor_type;location;lat;lon;timestamp;P1;durP1;ratioP1;P2;durP2;ratioP2
3099;SDS011;1560;52.746;13.474;2023-09-12T00:00:12;12.73;;;8.77;;
3099;SDS011;1560;52.746;13.474;2023-09-12T00:02:45;12.07;;;8.90;;
3099;SDS011;1560;52.746;13.474;2023-09-12T00:05:17;11.90;;;8.97;;
3099;SDS011;1560;52.746;13.474;2023-09-12T00:07:51;11.57;;;8.87;;
3099;SDS011;1560;52.746;13.474;2023-09-12T00:20:12;11.07;;;9.00;;
3099;SDS011;1560;52.746;13.474;2023-09-12T00:59:50;15.50;;;9.97;;
3099;SDS011;1560;52.746;13.474;2023-09-12T01:05:46;12.60;;;10.13;;
3099;SDS011;1560;52.746;13.474;2023-09-12T01:11:39;13.30;;;10.20;;
3099;SDS011;1560;52.746;13.474;2023-09-12T01:14:25;11.83;;;10.30;;
3099;SDS011;1560;52.746;13.474;2023-09-12T01:30:01;10.97;;;9.50;;
3099;SDS011;1560;52.746;13.474;2023-09-12T01:32:34;12.30;;;10.17;;
3099;SDS011;1560;52.746;13.474;2023-09-12T01:35:04;11.50;;;9.90;;
3099;SDS011;1560;52.746;13.474;2023-09-12T01:41:16;12.93;;;9.87;;
3099;SDS011;1560;52.746;13.474;2023-09-12T01:43:47;11.93;;;9.77;;
3099;SDS011;1560;52.746;13.474;2023-09-12T01:46:28;12.43;;;9.87;;
3099;SDS011;1560;52.746;13.474;2023-09-12T01:48:59;12.17;;;9.33;;
3099;SDS011;1560;52.746;13.474;2023-09-12T01:51:30;13.43;;;10.00;;
3099;SDS011;1560;52.746;13.474;2023-09-12T01:53:59;13.00;;;10.67;;
3099;SDS011;1560;52.746;13.474;2023-09-12T01:56:43;14.43;;;10.80;;
3099;SDS011;1560;52.746;13.474;2023-09-12T01:59:12;19.60;;;11.47;;
3099;SDS011;1560;52.746;13.474;2023-09-12T02:01:41;14.43;;;10.40;;
3099;SDS011;1560;52.746;13.474;2023-09-12T02:06:46;12.13;;;8.80;;
3099;SDS011;1560;52.746;13.474;2023-09-12T02:09:14;14.67;;;9.37;;
3099;SDS011;1560;52.746;13.474;2023-09-12T02:11:43;11.80;;;10.23;;
3099;SDS011;1560;52.746;13.474;2023-09-12T02:14:32;12.67;;;10.40;;
3099;SDS011;1560;52.746;13.474;2023-09-12T02:17:17;14.20;;;10.70;;
3099;SDS011;1560;52.746;13.474;2023-09-12T02:19:47;12.87;;;9.47;;
3099;SDS011;1560;52.746;13.474;2023-09-12T02:22:16;12.80;;;9.33;;
3099;SDS011;1560;52.746;13.474;2023-09-12T02:24:44;14.70;;;10.23;;
3099;SDS011;1560;52.746;13.474;2023-09-12T02:27:13;14.40;;;9.97;;
3099;SDS011;1560;52.746;13.474;2023-09-12T02:29:53;14.90;;;11.03;;
3099;SDS011;1560;52.746;13.474;2023-09-12T02:32:22;14.80;;;10.80;;
3099;SDS011;1560;52.746;13.474;2023-09-12T02:34:51;15.30;;;11.10;;
3099;SDS011;1560;52.746;13.474;2023-09-12T02:39:59;15.17;;;10.60;;
3099;SDS011;1560;52.746;13.474;2023-09-12T02:42:28;11.97;;;10.10;;
3099;SDS011;1560;52.746;13.474;2023-09-12T02:44:57;16.60;;;11.00;;
3099;SDS011;1560;52.746;13.474;2023-09-12T02:50:03;12.97;;;11.00;;
3099;SDS011;1560;52.746;13.474;2023-09-12T02:52:34;13.97;;;11.23;;
3099;SDS011;1560;52.746;13.474;2023-09-12T02:55:03;12.43;;;11.13;;
3099;SDS011;1560;52.746;13.474;2023-09-12T02:57:41;15.97;;;10.77;;
3099;SDS011;1560;52.746;13.474;2023-09-12T03:00:11;14.40;;;12.20;;
3099;SDS011;1560;52.746;13.474;2023-09-12T03:02:49;17.00;;;12.60;;
3099;SDS011;1560;52.746;13.474;2023-09-12T03:05:17;16.60;;;11.60;;
3099;SDS011;1560;52.746;13.474;2023-09-12T03:07:47;16.30;;;11.40;;
3099;SDS011;1560;52.746;13.474;2023-09-12T03:10:19;16.53;;;11.50;;
3099;SDS011;1560;52.746;13.474;2023-09-12T03:12:48;12.87;;;11.47;;
3099;SDS011;1560;52.746;13.474;2023-09-12T03:15:17;15.93;;;12.37;;
3099;SDS011;1560;52.746;13.474;2023-09-12T03:17:46;13.00;;;11.60;;
3099;SDS011;1560;52.746;13.474;2023-09-12T03:20:14;14.77;;;12.00;;
3099;SDS011;1560;52.746;13.474;2023-09-12T03:22:43;17.20;;;12.33;;
3099;SDS011;1560;52.746;13.474;2023-09-12T03:25:12;14.47;;;11.57;;
3099;SDS011;1560;52.746;13.474;2023-09-12T03:27:41;14.00;;;11.40;;
3099;SDS011;1560;52.746;13.474;2023-09-12T03:30:10;17.73;;;13.73;;
3099;SDS011;1560;52.746;13.474;2023-09-12T03:32:39;14.23;;;12.33;;
3099;SDS011;1560;52.746;13.474;2023-09-12T03:44:09;14.60;;;12.37;;
3099;SDS011;1560;52.746;13.474;2023-09-12T03:46:40;17.70;;;13.30;;
3099;SDS011;1560;52.746;13.474;2023-09-12T03:49:09;13.97;;;12.57;;
3099;SDS011;1560;52.746;13.474;2023-09-12T03:51:38;14.60;;;11.97;;
3099;SDS011;1560;52.746;13.474;2023-09-12T03:54:10;18.90;;;12.30;;
3099;SDS011;1560;52.746;13.474;2023-09-12T04:09:49;17.53;;;11.80;;
3099;SDS011;1560;52.746;13.474;2023-09-12T04:12:43;17.50;;;11.60;;
3099;SDS011;1560;52.746;13.474;2023-09-12T04:15:12;17.17;;;12.47;;
3099;SDS011;1560;52.746;13.474;2023-09-12T04:17:42;15.70;;;12.77;;
3099;SDS011;1560;52.746;13.474;2023-09-12T04:20:11;17.30;;;12.27;;
3099;SDS011;1560;52.746;13.474;2023-09-12T04:22:41;22.10;;;14.00;;
3099;SDS011;1560;52.746;13.474;2023-09-12T04:25:10;13.73;;;12.30;;
3099;SDS011;1560;52.746;13.474;2023-09-12T04:27:39;16.70;;;12.50;;
3099;SDS011;1560;52.746;13.474;2023-09-12T04:30:09;14.00;;;11.70;;
3099;SDS011;1560;52.746;13.474;2023-09-12T04:32:54;16.57;;;13.30;;
3099;SDS011;1560;52.746;13.474;2023-09-12T04:36:02;14.07;;;11.70;;
3099;SDS011;1560;52.746;13.474;2023-09-12T04:54:53;14.87;;;12.60;;
3099;SDS011;1560;52.746;13.474;2023-09-12T05:06:02;16.77;;;12.37;;
3099;SDS011;1560;52.746;13.474;2023-09-12T05:08:31;14.30;;;12.20;;
3099;SDS011;1560;52.746;13.474;2023-09-12T05:10:59;15.47;;;12.73;;
3099;SDS011;1560;52.746;13.474;2023-09-12T05:13:29;14.10;;;11.60;;
3099;SDS011;1560;52.746;13.474;2023-09-12T05:15:57;17.10;;;12.60;;
3099;SDS011;1560;52.746;13.474;2023-09-12T05:18:26;15.73;;;12.63;;
3099;SDS011;1560;52.746;13.474;2023-09-12T05:20:55;16.00;;;12.77;;
3099;SDS011;1560;52.746;13.474;2023-09-12T05:23:23;17.47;;;13.13;;
3099;SDS011;1560;52.746;13.474;2023-09-12T05:25:52;16.03;;;12.50;;
3099;SDS011;1560;52.746;13.474;2023-09-12T05:28:20;14.70;;;12.40;;
3099;SDS011;1560;52.746;13.474;2023-09-12T05:30:49;19.00;;;13.53;;
3099;SDS011;1560;52.746;13.474;2023-09-12T05:33:18;16.17;;;11.83;;
3099;SDS011;1560;52.746;13.474;2023-09-12T05:35:47;16.37;;;12.57;;
3099;SDS011;1560;52.746;13.474;2023-09-12T05:38:19;17.70;;;12.47;;
3099;SDS011;1560;52.746;13.474;2023-09-12T05:44:19;16.90;;;12.83;;
3099;SDS011;1560;52.746;13.474;2023-09-12T05:47:10;15.90;;;12.80;;
3099;SDS011;1560;52.746;13.474;2023-09-12T05:49:39;16.50;;;12.37;;
3099;SDS011;1560;52.746;13.474;2023-09-12T05:52:15;16.73;;;13.37;;
3099;SDS011;1560;52.746;13.474;2023-09-12T06:03:58;17.57;;;14.00;;
3099;SDS011;1560;52.746;13.474;2023-09-12T06:06:27;18.27;;;14.03;;
3099;SDS011;1560;52.746;13.474;2023-09-12T06:08:56;16.67;;;12.83;;
3099;SDS011;1560;52.746;13.474;2023-09-12T06:11:25;17.23;;;13.37;;
3099;SDS011;1560;52.746;13.474;2023-09-12T06:13:53;18.97;;;13.80;;
3099;SDS011;1560;52.746;13.474;2023-09-12T06:16:22;16.40;;;13.10;;
3099;SDS011;1560;52.746;13.474;2023-09-12T06:18:59;18.10;;;13.23;;
3099;SDS011;1560;52.746;13.474;2023-09-12T06:21:28;18.00;;;12.33;;
3099;SDS011;1560;52.746;13.474;2023-09-12T06:24:09;19.43;;;13.80;;
3099;SDS011;1560;52.746;13.474;2023-09-12T06:26:39;21.07;;;13.27;;
3099;SDS011;1560;52.746;13.474;2023-09-12T06:29:07;18.30;;;13.53;;
3099;SDS011;1560;52.746;13.474;2023-09-12T06:31:36;15.00;;;13.37;;
3099;SDS011;1560;52.746;13.474;2023-09-12T06:34:13;15.37;;;12.20;;
3099;SDS011;1560;52.746;13.474;2023-09-12T06:36:42;14.00;;;12.30;;
3099;SDS011;1560;52.746;13.474;2023-09-12T06:39:11;18.50;;;13.80;;
3099;SDS011;1560;52.746;13.474;2023-09-12T06:41:40;17.80;;;13.60;;
3099;SDS011;1560;52.746;13.474;2023-09-12T06:44:17;15.90;;;12.50;;
3099;SDS011;1560;52.746;13.474;2023-09-12T06:46:46;15.07;;;12.50;;
3099;SDS011;1560;52.746;13.474;2023-09-12T06:49:14;13.43;;;12.03;;
3099;SDS011;1560;52.746;13.474;2023-09-12T06:51:52;17.23;;;12.93;;
3099;SDS011;1560;52.746;13.474;2023-09-12T06:54:20;15.20;;;13.27;;
3099;SDS011;1560;52.746;13.474;2023-09-12T06:59:25;19.77;;;14.10;;
3099;SDS011;1560;52.746;13.474;2023-09-12T07:01:54;15.43;;;12.50;;
3099;SDS011;1560;52.746;13.474;2023-09-12T07:07:04;15.00;;;12.60;;
3099;SDS011;1560;52.746;13.474;2023-09-12T07:09:33;16.97;;;13.50;;
3099;SDS011;1560;52.746;13.474;2023-09-12T07:12:02;18.20;;;14.13;;
3099;SDS011;1560;52.746;13.474;2023-09-12T07:14:32;14.70;;;12.40;;
3099;SDS011;1560;52.746;13.474;2023-09-12T07:17:00;20.07;;;13.70;;
3099;SDS011;1560;52.746;13.474;2023-09-12T07:19:29;17.43;;;14.07;;
3099;SDS011;1560;52.746;13.474;2023-09-12T07:21:58;17.10;;;13.30;;
3099;SDS011;1560;52.746;13.474;2023-09-12T07:24:27;20.33;;;14.30;;
3099;SDS011;1560;52.746;13.474;2023-09-12T07:29:31;22.37;;;14.47;;
3099;SDS011;1560;52.746;13.474;2023-09-12T07:34:36;16.77;;;12.40;;
3099;SDS011;1560;52.746;13.474;2023-09-12T07:37:13;25.00;;;12.27;;
3099;SDS011;1560;52.746;13.474;2023-09-12T07:39:42;16.90;;;12.07;;
3099;SDS011;1560;52.746;13.474;2023-09-12T07:42:11;25.00;;;12.50;;
3099;SDS011;1560;52.746;13.474;2023-09-12T07:44:48;16.07;;;12.60;;
3099;SDS011;1560;52.746;13.474;2023-09-12T07:47:16;14.00;;;12.00;;
3099;SDS011;1560;52.746;13.474;2023-09-12T07:49:45;17.10;;;12.13;;
3099;SDS011;1560;52.746;13.474;2023-09-12T07:52:18;14.00;;;11.77;;
3099;SDS011;1560;52.746;13.474;2023-09-12T07:54:46;16.73;;;13.07;;
3099;SDS011;1560;52.746;13.474;2023-09-12T07:57:16;16.00;;;11.87;;
3099;SDS011;1560;52.746;13.474;2023-09-12T08:02:21;13.57;;;12.17;;
3099;SDS011;1560;52.746;13.474;2023-09-12T08:04:50;18.23;;;11.77;;
3099;SDS011;1560;52.746;13.474;2023-09-12T08:07:27;15.50;;;12.03;;
3099;SDS011;1560;52.746;13.474;2023-09-12T08:09:56;20.27;;;13.03;;
3099;SDS011;1560;52.746;13.474;2023-09-12T08:12:25;19.13;;;13.27;;
3099;SDS011;1560;52.746;13.474;2023-09-12T08:17:31;17.80;;;13.23;;
3099;SDS011;1560;52.746;13.474;2023-09-12T08:20:00;16.50;;;12.80;;
3099;SDS011;1560;52.746;13.474;2023-09-12T08:22:29;17.17;;;12.80;;
3099;SDS011;1560;52.746;13.474;2023-09-12T08:25:07;20.40;;;13.27;;
3099;SDS011;1560;52.746;13.474;2023-09-12T08:27:38;18.30;;;11.63;;
3099;SDS011;1560;52.746;13.474;2023-09-12T08:30:15;19.20;;;12.80;;
3099;SDS011;1560;52.746;13.474;2023-09-12T08:32:44;16.43;;;12.93;;
3099;SDS011;1560;52.746;13.474;2023-09-12T08:35:21;17.53;;;12.53;;
3099;SDS011;1560;52.746;13.474;2023-09-12T08:37:50;15.40;;;11.03;;
3099;SDS011;1560;52.746;13.474;2023-09-12T08:40:19;20.50;;;11.53;;
3099;SDS011;1560;52.746;13.474;2023-09-12T08:42:49;15.37;;;12.57;;
3099;SDS011;1560;52.746;13.474;2023-09-12T08:45:19;14.17;;;11.50;;
3099;SDS011;1560;52.746;13.474;2023-09-12T08:47:49;15.30;;;11.10;;
3099;SDS011;1560;52.746;13.474;2023-09-12T08:50:20;14.57;;;11.30;;
3099;SDS011;1560;52.746;13.474;2023-09-12T08:55:26;16.30;;;11.40;;
3099;SDS011;1560;52.746;13.474;2023-09-12T08:57:56;14.20;;;10.67;;
3099;SDS011;1560;52.746;13.474;2023-09-12T09:00:27;14.80;;;10.50;;
3099;SDS011;1560;52.746;13.474;2023-09-12T09:05:32;18.73;;;10.37;;
3099;SDS011;1560;52.746;13.474;2023-09-12T09:08:02;16.10;;;11.67;;
3099;SDS011;1560;52.746;13.474;2023-09-12T09:10:40;13.57;;;9.37;;
3099;SDS011;1560;52.746;13.474;2023-09-12T09:13:23;14.67;;;11.47;;
3099;SDS011;1560;52.746;13.474;2023-09-12T09:16:05;11.87;;;10.40;;
3099;SDS011;1560;52.746;13.474;2023-09-12T09:18:55;10.63;;;8.77;;
3099;SDS011;1560;52.746;13.474;2023-09-12T09:21:33;12.80;;;9.10;;
3099;SDS011;1560;52.746;13.474;2023-09-12T09:24:02;15.27;;;9.60;;
3099;SDS011;1560;52.746;13.474;2023-09-12T09:26:42;18.13;;;11.70;;
3099;SDS011;1560;52.746;13.474;2023-09-12T09:29:12;11.90;;;8.97;;
3099;SDS011;1560;52.746;13.474;2023-09-12T09:31:43;15.00;;;9.63;;
3099;SDS011;1560;52.746;13.474;2023-09-12T09:34:14;19.70;;;10.50;;
3099;SDS011;1560;52.746;13.474;2023-09-12T09:36:43;13.57;;;9.07;;
3099;SDS011;1560;52.746;13.474;2023-09-12T09:39:16;15.40;;;10.30;;
3099;SDS011;1560;52.746;13.474;2023-09-12T09:41:47;15.03;;;10.50;;
3099;SDS011;1560;52.746;13.474;2023-09-12T09:44:25;15.80;;;9.70;;
3099;SDS011;1560;52.746;13.474;2023-09-12T09:46:58;16.27;;;9.73;;
3099;SDS011;1560;52.746;13.474;2023-09-12T09:49:34;15.10;;;9.63;;
3099;SDS011;1560;52.746;13.474;2023-09-12T09:52:03;18.60;;;10.77;;
3099;SDS011;1560;52.746;13.474;2023-09-12T09:57:09;18.87;;;10.63;;
3099;SDS011;1560;52.746;13.474;2023-09-12T09:59:38;15.00;;;11.17;;
3099;SDS011;1560;52.746;13.474;2023-09-12T10:02:06;14.33;;;10.17;;
3099;SDS011;1560;52.746;13.474;2023-09-12T10:04:45;13.80;;;11.37;;
3099;SDS011;1560;52.746;13.474;2023-09-12T10:07:15;12.83;;;10.80;;
3099;SDS011;1560;52.746;13.474;2023-09-12T10:09:53;13.80;;;10.00;;
3099;SDS011;1560;52.746;13.474;2023-09-12T10:12:22;22.83;;;11.43;;
3099;SDS011;1560;52.746;13.474;2023-09-12T10:17:31;15.00;;;10.30;;
3099;SDS011;1560;52.746;13.474;2023-09-12T10:22:39;13.80;;;9.50;;
3099;SDS011;1560;52.746;13.474;2023-09-12T10:25:09;17.20;;;10.33;;
3099;SDS011;1560;52.746;13.474;2023-09-12T10:27:39;11.73;;;9.87;;
3099;SDS011;1560;52.746;13.474;2023-09-12T10:32:45;11.10;;;8.53;;
3099;SDS011;1560;52.746;13.474;2023-09-12T10:35:15;12.63;;;9.03;;
3099;SDS011;1560;52.746;13.474;2023-09-12T10:37:45;15.00;;;9.33;;
3099;SDS011;1560;52.746;13.474;2023-09-12T10:40:16;11.20;;;9.67;;
3099;SDS011;1560;52.746;13.474;2023-09-12T10:42:46;21.13;;;8.90;;
3099;SDS011;1560;52.746;13.474;2023-09-12T10:45:17;12.93;;;7.87;;
3099;SDS011;1560;52.746;13.474;2023-09-12T10:47:46;11.97;;;9.83;;
3099;SDS011;1560;52.746;13.474;2023-09-12T10:50:15;10.40;;;8.27;;
3099;SDS011;1560;52.746;13.474;2023-09-12T10:52:53;13.10;;;8.57;;
3099;SDS011;1560;52.746;13.474;2023-09-12T10:55:22;11.77;;;10.53;;
3099;SDS011;1560;52.746;13.474;2023-09-12T10:58:03;9.77;;;8.77;;
3099;SDS011;1560;52.746;13.474;2023-09-12T11:00:33;10.40;;;8.23;;
3099;SDS011;1560;52.746;13.474;2023-09-12T11:06:07;18.33;;;8.17;;
3099;SDS011;1560;52.746;13.474;2023-09-12T11:11:46;9.13;;;7.40;;
3099;SDS011;1560;52.746;13.474;2023-09-12T11:14:15;16.73;;;8.10;;
3099;SDS011;1560;52.746;13.474;2023-09-12T11:17:02;15.03;;;7.77;;
3099;SDS011;1560;52.746;13.474;2023-09-12T11:19:48;11.50;;;9.80;;
3099;SDS011;1560;52.746;13.474;2023-09-12T11:22:26;10.90;;;7.00;;
3099;SDS011;1560;52.746;13.474;2023-09-12T11:24:57;8.47;;;7.13;;
3099;SDS011;1560;52.746;13.474;2023-09-12T11:27:44;13.93;;;7.70;;
3099;SDS011;1560;52.746;13.474;2023-09-12T11:30:15;8.03;;;6.70;;
3099;SDS011;1560;52.746;13.474;2023-09-12T11:35:22;9.67;;;7.20;;
3099;SDS011;1560;52.746;13.474;2023-09-12T11:37:53;10.87;;;7.80;;
3099;SDS011;1560;52.746;13.474;2023-09-12T11:40:23;10.27;;;6.90;;
3099;SDS011;1560;52.746;13.474;2023-09-12T11:42:54;9.23;;;6.50;;
3099;SDS011;1560;52.746;13.474;2023-09-12T11:45:26;8.40;;;6.70;;
3099;SDS011;1560;52.746;13.474;2023-09-12T11:47:55;12.50;;;6.80;;
3099;SDS011;1560;52.746;13.474;2023-09-12T11:53:14;11.57;;;6.37;;
3099;SDS011;1560;52.746;13.474;2023-09-12T11:55:46;7.60;;;5.90;;
3099;SDS011;1560;52.746;13.474;2023-09-12T11:58:18;11.63;;;6.20;;
3099;SDS011;1560;52.746;13.474;2023-09-12T12:00:49;9.50;;;6.10;;
3099;SDS011;1560;52.746;13.474;2023-09-12T12:03:19;7.47;;;5.80;;
3099;SDS011;1560;52.746;13.474;2023-09-12T12:05:58;9.43;;;6.20;;
3099;SDS011;1560;52.746;13.474;2023-09-12T12:08:27;8.43;;;6.70;;
3099;SDS011;1560;52.746;13.474;2023-09-12T12:10:58;8.10;;;6.43;;
3099;SDS011;1560;52.746;13.474;2023-09-12T12:13:27;7.70;;;5.80;;
3099;SDS011;1560;52.746;13.474;2023-09-12T12:15:56;10.60;;;7.03;;
3099;SDS011;1560;52.746;13.474;2023-09-12T12:18:24;12.60;;;6.77;;
3099;SDS011;1560;52.746;13.474;2023-09-12T12:20:53;7.63;;;6.67;;
3099;SDS011;1560;52.746;13.474;2023-09-12T12:23:22;10.00;;;6.33;;
3099;SDS011;1560;52.746;13.474;2023-09-12T12:25:51;11.77;;;6.90;;
3099;SDS011;1560;52.746;13.474;2023-09-12T12:28:28;7.27;;;5.80;;
3099;SDS011;1560;52.746;13.474;2023-09-12T12:30:58;9.70;;;7.03;;
3099;SDS011;1560;52.746;13.474;2023-09-12T12:33:27;9.73;;;6.50;;
3099;SDS011;1560;52.746;13.474;2023-09-12T12:36:00;7.13;;;6.43;;
3099;SDS011;1560;52.746;13.474;2023-09-12T12:38:31;7.37;;;6.67;;
3099;SDS011;1560;52.746;13.474;2023-09-12T12:41:01;7.27;;;6.50;;
3099;SDS011;1560;52.746;13.474;2023-09-12T12:43:39;8.50;;;6.50;;
3099;SDS011;1560;52.746;13.474;2023-09-12T12:46:10;10.20;;;6.77;;
3099;SDS011;1560;52.746;13.474;2023-09-12T12:48:42;6.47;;;5.87;;
3099;SDS011;1560;52.746;13.474;2023-09-12T12:51:16;10.73;;;6.30;;
3099;SDS011;1560;52.746;13.474;2023-09-12T12:53:46;10.13;;;7.10;;
3099;SDS011;1560;52.746;13.474;2023-09-12T12:56:17;9.67;;;7.03;;
3099;SDS011;1560;52.746;13.474;2023-09-12T12:58:48;6.73;;;6.03;;
3099;SDS011;1560;52.746;13.474;2023-09-12T13:01:26;9.13;;;7.27;;
3099;SDS011;1560;52.746;13.474;2023-09-12T13:03:54;8.20;;;6.60;;
3099;SDS011;1560;52.746;13.474;2023-09-12T13:06:23;6.63;;;6.00;;
3099;SDS011;1560;52.746;13.474;2023-09-12T13:08:54;11.10;;;6.50;;
3099;SDS011;1560;52.746;13.474;2023-09-12T13:11:31;10.73;;;7.23;;
3099;SDS011;1560;52.746;13.474;2023-09-12T13:14:00;8.13;;;6.27;;
3099;SDS011;1560;52.746;13.474;2023-09-12T13:16:32;8.30;;;6.93;;
3099;SDS011;1560;52.746;13.474;2023-09-12T13:19:00;8.67;;;7.20;;
3099;SDS011;1560;52.746;13.474;2023-09-12T13:21:29;7.63;;;6.50;;
3099;SDS011;1560;52.746;13.474;2023-09-12T13:23:59;8.03;;;7.23;;
3099;SDS011;1560;52.746;13.474;2023-09-12T13:26:36;12.47;;;6.77;;
3099;SDS011;1560;52.746;13.474;2023-09-12T13:29:06;14.40;;;7.10;;
3099;SDS011;1560;52.746;13.474;2023-09-12T13:31:35;8.77;;;5.80;;
3099;SDS011;1560;52.746;13.474;2023-09-12T13:34:03;10.43;;;6.50;;
3099;SDS011;1560;52.746;13.474;2023-09-12T13:36:32;8.50;;;6.40;;
3099;SDS011;1560;52.746;13.474;2023-09-12T13:39:01;10.33;;;7.00;;
3099;SDS011;1560;52.746;13.474;2023-09-12T13:41:30;10.77;;;7.00;;
3099;SDS011;1560;52.746;13.474;2023-09-12T13:43:58;8.00;;;7.30;;
3099;SDS011;1560;52.746;13.474;2023-09-12T13:46:27;7.07;;;6.20;;
3099;SDS011;1560;52.746;13.474;2023-09-12T13:49:04;11.97;;;7.30;;
3099;SDS011;1560;52.746;13.474;2023-09-12T13:51:33;7.77;;;5.93;;
3099;SDS011;1560;52.746;13.474;2023-09-12T13:54:02;11.07;;;7.30;;
3099;SDS011;1560;52.746;13.474;2023-09-12T13:56:32;10.13;;;6.50;;
3099;SDS011;1560;52.746;13.474;2023-09-12T13:59:02;10.60;;;6.70;;
3099;SDS011;1560;52.746;13.474;2023-09-12T14:01:32;9.43;;;7.10;;
3099;SDS011;1560;52.746;13.474;2023-09-12T14:04:01;10.07;;;7.63;;
3099;SDS011;1560;52.746;13.474;2023-09-12T14:06:30;13.43;;;7.77;;
3099;SDS011;1560;52.746;13.474;2023-09-12T14:09:07;9.77;;;7.03;;
3099;SDS011;1560;52.746;13.474;2023-09-12T14:11:36;8.40;;;6.80;;
3099;SDS011;1560;52.746;13.474;2023-09-12T14:14:05;13.13;;;6.73;;
3099;SDS011;1560;52.746;13.474;2023-09-12T14:16:33;9.67;;;5.97;;
3099;SDS011;1560;52.746;13.474;2023-09-12T14:19:02;10.60;;;6.47;;
3099;SDS011;1560;52.746;13.474;2023-09-12T14:21:31;8.20;;;6.40;;
3099;SDS011;1560;52.746;13.474;2023-09-12T14:24:08;10.73;;;7.50;;
3099;SDS011;1560;52.746;13.474;2023-09-12T14:26:37;9.90;;;6.67;;
3099;SDS011;1560;52.746;13.474;2023-09-12T14:29:05;7.87;;;5.53;;
3099;SDS011;1560;52.746;13.474;2023-09-12T14:31:34;11.30;;;6.40;;
3099;SDS011;1560;52.746;13.474;2023-09-12T14:34:04;9.60;;;6.70;;
3099;SDS011;1560;52.746;13.474;2023-09-12T14:36:34;9.10;;;6.20;;
3099;SDS011;1560;52.746;13.474;2023-09-12T14:39:03;7.00;;;5.53;;
3099;SDS011;1560;52.746;13.474;2023-09-12T14:41:31;4.10;;;3.50;;
3099;SDS011;1560;52.746;13.474;2023-09-12T14:44:09;5.77;;;3.87;;
3099;SDS011;1560;52.746;13.474;2023-09-12T14:46:37;5.00;;;4.30;;
3099;SDS011;1560;52.746;13.474;2023-09-12T14:49:06;6.00;;;4.60;;
3099;SDS011;1560;52.746;13.474;2023-09-12T14:51:36;5.23;;;3.50;;
3099;SDS011;1560;52.746;13.474;2023-09-12T14:54:05;4.20;;;3.63;;
3099;SDS011;1560;52.746;13.474;2023-09-12T14:56:34;5.53;;;4.60;;
3099;SDS011;1560;52.746;13.474;2023-09-12T14:59:03;7.73;;;4.53;;
3099;SDS011;1560;52.746;13.474;2023-09-12T15:01:32;6.63;;;4.47;;
3099;SDS011;1560;52.746;13.474;2023-09-12T15:04:10;6.40;;;4.50;;
3099;SDS011;1560;52.746;13.474;2023-09-12T15:06:39;4.17;;;3.77;;
3099;SDS011;1560;52.746;13.474;2023-09-12T15:09:08;5.30;;;4.80;;
3099;SDS011;1560;52.746;13.474;2023-09-12T15:11:37;6.10;;;3.80;;
3099;SDS011;1560;52.746;13.474;2023-09-12T15:14:05;6.87;;;4.63;;
3099;SDS011;1560;52.746;13.474;2023-09-12T15:16:34;4.60;;;3.77;;
3099;SDS011;1560;52.746;13.474;2023-09-12T15:19:11;5.90;;;4.50;;
3099;SDS011;1560;52.746;13.474;2023-09-12T15:21:40;5.90;;;3.40;;
3099;SDS011;1560;52.746;13.474;2023-09-12T15:24:09;4.73;;;4.10;;
3099;SDS011;1560;52.746;13.474;2023-09-12T15:26:37;4.20;;;3.80;;
3099;SDS011;1560;52.746;13.474;2023-09-12T15:29:06;4.07;;;3.67;;
3099;SDS011;1560;52.746;13.474;2023-09-12T15:31:34;4.10;;;3.77;;
3099;SDS011;1560;52.746;13.474;2023-09-12T15:34:03;5.30;;;3.60;;
3099;SDS011;1560;52.746;13.474;2023-09-12T15:36:41;4.77;;;4.23;;
3099;SDS011;1560;52.746;13.474;2023-09-12T15:39:12;5.13;;;3.73;;
3099;SDS011;1560;52.746;13.474;2023-09-12T15:41:41;4.00;;;3.60;;
3099;SDS011;1560;52.746;13.474;2023-09-12T15:44:09;3.87;;;3.50;;
3099;SDS011;1560;52.746;13.474;2023-09-12T15:46:38;5.03;;;3.70;;
3099;SDS011;1560;52.746;13.474;2023-09-12T15:49:07;4.33;;;3.53;;
3099;SDS011;1560;52.746;13.474;2023-09-12T15:51:35;10.80;;;4.20;;
3099;SDS011;1560;52.746;13.474;2023-09-12T15:54:13;4.00;;;3.60;;
3099;SDS011;1560;52.746;13.474;2023-09-12T15:56:41;7.30;;;3.40;;
3099;SDS011;1560;52.746;13.474;2023-09-12T15:59:13;3.90;;;2.77;;
3099;SDS011;1560;52.746;13.474;2023-09-12T16:02:09;4.00;;;3.60;;
3099;SDS011;1560;52.746;13.474;2023-09-12T16:04:37;4.60;;;3.73;;
3099;SDS011;1560;52.746;13.474;2023-09-12T16:07:19;6.40;;;3.70;;
3099;SDS011;1560;52.746;13.474;2023-09-12T16:12:47;4.70;;;2.60;;
3099;SDS011;1560;52.746;13.474;2023-09-12T16:15:16;5.13;;;3.90;;
3099;SDS011;1560;52.746;13.474;2023-09-12T16:17:46;5.27;;;3.73;;
3099;SDS011;1560;52.746;13.474;2023-09-12T16:20:16;4.90;;;3.30;;
3099;SDS011;1560;52.746;13.474;2023-09-12T16:22:53;3.27;;;2.70;;
3099;SDS011;1560;52.746;13.474;2023-09-12T16:25:26;4.30;;;3.10;;
3099;SDS011;1560;52.746;13.474;2023-09-12T16:27:57;5.23;;;3.60;;
3099;SDS011;1560;52.746;13.474;2023-09-12T16:47:13;6.53;;;3.20;;
3099;SDS011;1560;52.746;13.474;2023-09-12T16:55:55;3.87;;;2.30;;
3099;SDS011;1560;52.746;13.474;2023-09-12T16:58:30;4.83;;;2.87;;
3099;SDS011;1560;52.746;13.474;2023-09-12T17:01:00;5.63;;;3.00;;
3099;SDS011;1560;52.746;13.474;2023-09-12T17:03:32;4.50;;;3.17;;
3099;SDS011;1560;52.746;13.474;2023-09-12T17:06:05;5.67;;;2.40;;
3099;SDS011;1560;52.746;13.474;2023-09-12T17:08:42;3.80;;;2.73;;
3099;SDS011;1560;52.746;13.474;2023-09-12T17:14:24;2.70;;;2.33;;
3099;SDS011;1560;52.746;13.474;2023-09-12T17:17:01;2.93;;;1.90;;
3099;SDS011;1560;52.746;13.474;2023-09-12T17:19:33;2.93;;;2.30;;
3099;SDS011;1560;52.746;13.474;2023-09-12T17:22:04;2.77;;;2.30;;
3099;SDS011;1560;52.746;13.474;2023-09-12T17:24:53;4.53;;;2.50;;
3099;SDS011;1560;52.746;13.474;2023-09-12T17:27:57;3.47;;;2.10;;
3099;SDS011;1560;52.746;13.474;2023-09-12T17:30:45;3.13;;;1.90;;
3099;SDS011;1560;52.746;13.474;2023-09-12T17:33:24;2.30;;;2.03;;
3099;SDS011;1560;52.746;13.474;2023-09-12T18:56:09;3.10;;;2.37;;
3099;SDS011;1560;52.746;13.474;2023-09-12T19:01:21;3.50;;;2.57;;
3099;SDS011;1560;52.746;13.474;2023-09-12T19:03:53;4.30;;;2.83;;
3099;SDS011;1560;52.746;13.474;2023-09-12T19:06:29;3.23;;;2.40;;
3099;SDS011;1560;52.746;13.474;2023-09-12T19:09:08;5.67;;;2.40;;
3099;SDS011;1560;52.746;13.474;2023-09-12T19:11:44;3.20;;;2.80;;
3099;SDS011;1560;52.746;13.474;2023-09-12T19:14:16;3.43;;;2.30;;
3099;SDS011;1560;52.746;13.474;2023-09-12T19:16:51;5.10;;;2.73;;
3099;SDS011;1560;52.746;13.474;2023-09-12T19:19:40;3.60;;;2.90;;
3099;SDS011;1560;52.746;13.474;2023-09-12T19:22:19;3.60;;;2.57;;
3099;SDS011;1560;52.746;13.474;2023-09-12T19:24:58;3.70;;;2.20;;
3099;SDS011;1560;52.746;13.474;2023-09-12T19:27:31;3.17;;;2.73;;
3099;SDS011;1560;52.746;13.474;2023-09-12T19:30:15;3.07;;;2.50;;
3099;SDS011;1560;52.746;13.474;2023-09-12T19:59:16;4.30;;;2.90;;
3099;SDS011;1560;52.746;13.474;2023-09-12T20:04:22;3.33;;;2.53;;
3099;SDS011;1560;52.746;13.474;2023-09-12T20:06:52;5.37;;;2.60;;
3099;SDS011;1560;52.746;13.474;2023-09-12T20:09:21;3.33;;;2.83;;
3099;SDS011;1560;52.746;13.474;2023-09-12T20:14:28;7.80;;;3.83;;
3099;SDS011;1560;52.746;13.474;2023-09-12T20:16:57;3.30;;;3.00;;
3099;SDS011;1560;52.746;13.474;2023-09-12T20:19:25;3.30;;;2.70;;
3099;SDS011;1560;52.746;13.474;2023-09-12T20:21:54;4.17;;;2.47;;
3099;SDS011;1560;52.746;13.474;2023-09-12T20:24:32;3.57;;;2.90;;
3099;SDS011;1560;52.746;13.474;2023-09-12T20:27:01;4.20;;;2.90;;
3099;SDS011;1560;52.746;13.474;2023-09-12T20:29:33;4.70;;;2.90;;
3099;SDS011;1560;52.746;13.474;2023-09-12T20:34:38;5.63;;;2.90;;
3099;SDS011;1560;52.746;13.474;2023-09-12T20:37:08;3.57;;;2.73;;
3099;SDS011;1560;52.746;13.474;2023-09-12T20:39:37;3.70;;;2.67;;
3099;SDS011;1560;52.746;13.474;2023-09-12T20:42:06;3.20;;;2.50;;